createdAt,value
2023-01-19T00:00:02.283Z,-2.82
2023-01-19T00:00:14.105Z,-2.85
2023-01-19T00:00:24.905Z,-2.82
2023-01-19T00:00:37.891Z,-2.85
2023-01-19T00:00:49.642Z,-2.85
2023-01-19T00:01:01.357Z,-2.85
2023-01-19T00:01:13.142Z,-2.85
2023-01-19T00:01:23.918Z,-2.85
2023-01-19T00:01:36.370Z,-2.85
2023-01-19T00:01:47.117Z,-2.86
2023-01-19T00:01:58.865Z,-2.87
2023-01-19T00:02:11.084Z,-2.86
2023-01-19T00:02:22.940Z,-2.87
2023-01-19T00:02:33.797Z,-2.87
2023-01-19T00:02:46.061Z,-2.90
2023-01-19T00:02:56.900Z,-2.90
2023-01-19T00:03:08.682Z,-2.90
2023-01-19T00:03:19.478Z,-2.92
2023-01-19T00:03:30.258Z,-2.92
2023-01-19T00:03:41.036Z,-2.94
2023-01-19T00:03:51.791Z,-2.94
2023-01-19T00:04:04.006Z,-2.94
2023-01-19T00:04:15.741Z,-2.96
2023-01-19T00:04:26.491Z,-2.94
2023-01-19T00:04:38.239Z,-2.94
2023-01-19T00:04:49.028Z,-2.94
2023-01-19T00:04:59.788Z,-2.94
2023-01-19T00:05:10.638Z,-2.93
2023-01-19T00:05:24.001Z,-2.94
2023-01-19T00:05:34.798Z,-2.94
2023-01-19T00:05:45.548Z,-2.93
2023-01-19T00:05:56.363Z,-2.94
2023-01-19T00:06:07.183Z,-2.94
2023-01-19T00:06:18.046Z,-2.93
2023-01-19T00:06:29.746Z,-2.94
2023-01-19T00:06:42.758Z,-2.96
2023-01-19T00:06:54.974Z,-2.94
2023-01-19T00:07:07.310Z,-2.94
2023-01-19T00:07:20.527Z,-2.93
2023-01-19T00:07:31.333Z,-2.92
2023-01-19T00:07:42.085Z,-2.92
2023-01-19T00:07:52.851Z,-2.90
2023-01-19T00:08:03.597Z,-2.90
2023-01-19T00:08:14.368Z,-2.89
2023-01-19T00:08:26.802Z,-2.90
2023-01-19T00:08:39.800Z,-2.89
2023-01-19T00:08:52.280Z,-2.89
2023-01-19T00:09:03.028Z,-2.90
2023-01-19T00:09:15.481Z,-2.89
2023-01-19T00:09:26.421Z,-2.90
2023-01-19T00:09:37.222Z,-2.92
2023-01-19T00:09:48.988Z,-2.92
2023-01-19T00:09:59.730Z,-2.93
2023-01-19T00:10:10.542Z,-2.94
2023-01-19T00:10:21.360Z,-2.94
2023-01-19T00:10:32.130Z,-2.94
2023-01-19T00:10:42.913Z,-2.96
2023-01-19T00:10:53.783Z,-2.96
2023-01-19T00:11:04.544Z,-2.99
2023-01-19T00:11:17.503Z,-2.97
2023-01-19T00:11:29.727Z,-3.00
2023-01-19T00:11:40.471Z,-3.00
2023-01-19T00:11:52.626Z,-3.00
2023-01-19T00:12:05.321Z,-3.02
2023-01-19T00:12:17.778Z,-3.04
2023-01-19T00:12:28.564Z,-3.02
2023-01-19T00:12:41.090Z,-3.05
2023-01-19T00:12:51.808Z,-3.04
2023-01-19T00:13:02.905Z,-3.04
2023-01-19T00:13:13.994Z,-3.05
2023-01-19T00:13:24.710Z,-3.02
2023-01-19T00:13:36.985Z,-3.02
2023-01-19T00:13:47.740Z,-3.00
2023-01-19T00:14:00.213Z,-3.00
2023-01-19T00:14:10.981Z,-3.00
2023-01-19T00:14:21.797Z,-2.99
2023-01-19T00:14:34.229Z,-2.99
2023-01-19T00:14:45.969Z,-2.97
2023-01-19T00:14:57.713Z,-2.97
2023-01-19T00:15:09.449Z,-2.96
2023-01-19T00:15:20.215Z,-2.97
2023-01-19T00:15:30.961Z,-2.97
2023-01-19T00:15:42.697Z,-2.97
2023-01-19T00:15:55.137Z,-2.97
2023-01-19T00:16:05.895Z,-2.97
2023-01-19T00:16:16.667Z,-2.97
2023-01-19T00:16:28.431Z,-2.97
2023-01-19T00:16:39.236Z,-2.99
2023-01-19T00:16:50.014Z,-3.00
2023-01-19T00:17:00.778Z,-3.00
2023-01-19T00:17:13.728Z,-3.02
2023-01-19T00:17:27.958Z,-3.00
2023-01-19T00:17:40.672Z,-3.02
2023-01-19T00:17:51.473Z,-3.04
2023-01-19T00:18:03.177Z,-3.04
2023-01-19T00:18:13.940Z,-3.05
2023-01-19T00:18:25.661Z,-3.07
2023-01-19T00:18:36.421Z,-3.07
2023-01-19T00:18:47.150Z,-3.08
2023-01-19T00:18:59.616Z,-3.10
2023-01-19T00:19:12.110Z,-3.10
2023-01-19T00:19:22.929Z,-3.11
2023-01-19T00:19:34.687Z,-3.11
2023-01-19T00:19:47.165Z,-3.11
2023-01-19T00:19:57.925Z,-3.14
2023-01-19T00:20:08.679Z,-3.15
2023-01-19T00:20:21.113Z,-3.15
2023-01-19T00:20:31.932Z,-3.18
2023-01-19T00:20:42.741Z,-3.18
2023-01-19T00:20:53.497Z,-3.20
2023-01-19T00:21:04.253Z,-3.20
2023-01-19T00:21:15.040Z,-3.22
2023-01-19T00:21:26.809Z,-3.22
2023-01-19T00:21:37.589Z,-3.22
2023-01-19T00:21:48.389Z,-3.22
2023-01-19T00:21:59.185Z,-3.23
2023-01-19T00:22:09.940Z,-3.23
2023-01-19T00:22:22.208Z,-3.25
2023-01-19T00:22:33.009Z,-3.25
2023-01-19T00:22:43.760Z,-3.26
2023-01-19T00:22:57.250Z,-3.26
2023-01-19T00:23:09.151Z,-3.26
2023-01-19T00:23:20.862Z,-3.26
2023-01-19T00:23:32.604Z,-3.29
2023-01-19T00:23:45.042Z,-3.29
2023-01-19T00:23:56.794Z,-3.29
2023-01-19T00:24:09.254Z,-3.28
2023-01-19T00:24:19.991Z,-3.29
2023-01-19T00:24:31.754Z,-3.29
2023-01-19T00:24:43.987Z,-3.31
2023-01-19T00:24:55.668Z,-3.31
2023-01-19T00:25:08.114Z,-3.31
2023-01-19T00:25:19.827Z,-3.33
2023-01-19T00:25:30.603Z,-3.35
2023-01-19T00:25:41.340Z,-3.35
2023-01-19T00:25:53.790Z,-3.38
2023-01-19T00:26:04.580Z,-3.38
2023-01-19T00:26:16.294Z,-3.36
2023-01-19T00:26:29.019Z,-3.36
2023-01-19T00:26:41.492Z,-3.38
2023-01-19T00:26:53.232Z,-3.38
2023-01-19T00:27:04.973Z,-3.41
2023-01-19T00:27:15.741Z,-3.39
2023-01-19T00:27:26.592Z,-3.41
2023-01-19T00:27:38.294Z,-3.41
2023-01-19T00:27:50.773Z,-3.43
2023-01-19T00:28:03.004Z,-3.44
2023-01-19T00:28:13.778Z,-3.46
2023-01-19T00:28:25.514Z,-3.47
2023-01-19T00:28:37.279Z,-3.47
2023-01-19T00:28:48.971Z,-3.47
2023-01-19T00:28:59.743Z,-3.49
2023-01-19T00:29:10.542Z,-3.49
2023-01-19T00:29:21.271Z,-3.51
2023-01-19T00:29:32.009Z,-3.51
2023-01-19T00:29:42.751Z,-3.50
2023-01-19T00:29:54.351Z,-3.51
2023-01-19T00:30:05.123Z,-3.51
2023-01-19T00:30:15.931Z,-3.51
2023-01-19T00:30:26.727Z,-3.51
2023-01-19T00:30:38.682Z,-3.50
2023-01-19T00:30:49.464Z,-3.51
2023-01-19T00:31:01.210Z,-3.51
2023-01-19T00:31:12.031Z,-3.51
2023-01-19T00:31:22.812Z,-3.51
2023-01-19T00:31:36.484Z,-3.50
2023-01-19T00:31:49.011Z,-3.49
2023-01-19T00:31:59.817Z,-3.49
2023-01-19T00:32:11.545Z,-3.47
2023-01-19T00:32:23.254Z,-3.46
2023-01-19T00:32:35.734Z,-3.46
2023-01-19T00:32:46.540Z,-3.46
2023-01-19T00:32:58.897Z,-3.44
2023-01-19T00:33:11.825Z,-3.44
2023-01-19T00:33:22.643Z,-3.43
2023-01-19T00:33:33.421Z,-3.41
2023-01-19T00:33:44.160Z,-3.43
2023-01-19T00:33:57.313Z,-3.41
2023-01-19T00:34:09.780Z,-3.41
2023-01-19T00:34:20.573Z,-3.41
2023-01-19T00:34:33.013Z,-3.39
2023-01-19T00:34:43.781Z,-3.39
2023-01-19T00:34:55.506Z,-3.41
2023-01-19T00:35:06.253Z,-3.41
2023-01-19T00:35:18.716Z,-3.39
2023-01-19T00:35:30.472Z,-3.41
2023-01-19T00:35:41.253Z,-3.41
2023-01-19T00:35:53.002Z,-3.39
2023-01-19T00:36:03.778Z,-3.39
2023-01-19T00:36:15.509Z,-3.38
2023-01-19T00:36:28.728Z,-3.39
2023-01-19T00:36:40.503Z,-3.41
2023-01-19T00:36:51.273Z,-3.39
2023-01-19T00:37:02.034Z,-3.41
2023-01-19T00:37:12.795Z,-3.41
2023-01-19T00:37:23.555Z,-3.39
2023-01-19T00:37:35.273Z,-3.41
2023-01-19T00:37:46.151Z,-3.39
2023-01-19T00:37:56.927Z,-3.39
2023-01-19T00:38:09.916Z,-3.41
2023-01-19T00:38:23.143Z,-3.39
2023-01-19T00:38:34.913Z,-3.36
2023-01-19T00:38:45.681Z,-3.36
2023-01-19T00:38:58.170Z,-3.36
2023-01-19T00:39:08.931Z,-3.33
2023-01-19T00:39:19.674Z,-3.32
2023-01-19T00:39:31.391Z,-3.32
2023-01-19T00:39:44.082Z,-3.31
2023-01-19T00:39:54.796Z,-3.32
2023-01-19T00:40:05.585Z,-3.32
2023-01-19T00:40:18.122Z,-3.31
2023-01-19T00:40:29.922Z,-3.29
2023-01-19T00:40:40.707Z,-3.29
2023-01-19T00:40:52.459Z,-3.29
2023-01-19T00:41:03.249Z,-3.31
2023-01-19T00:41:15.000Z,-3.31
2023-01-19T00:41:25.795Z,-3.31
2023-01-19T00:41:36.617Z,-3.29
2023-01-19T00:41:48.335Z,-3.31
2023-01-19T00:42:00.792Z,-3.31
2023-01-19T00:42:11.557Z,-3.29
2023-01-19T00:42:22.333Z,-3.31
2023-01-19T00:42:34.586Z,-3.32
2023-01-19T00:42:45.329Z,-3.31
2023-01-19T00:42:56.144Z,-3.32
2023-01-19T00:43:06.932Z,-3.33
2023-01-19T00:43:19.373Z,-3.32
2023-01-19T00:43:30.161Z,-3.33
2023-01-19T00:43:41.967Z,-3.35
2023-01-19T00:43:53.665Z,-3.33
2023-01-19T00:44:05.401Z,-3.35
2023-01-19T00:44:17.164Z,-3.38
2023-01-19T00:44:27.951Z,-3.38
2023-01-19T00:44:39.680Z,-3.39
2023-01-19T00:44:51.423Z,-3.38
2023-01-19T00:45:02.184Z,-3.38
2023-01-19T00:45:12.934Z,-3.41
2023-01-19T00:45:26.205Z,-3.39
2023-01-19T00:45:38.366Z,-3.41
2023-01-19T00:45:49.210Z,-3.41
2023-01-19T00:46:00.977Z,-3.43
2023-01-19T00:46:11.790Z,-3.41
2023-01-19T00:46:22.593Z,-3.43
2023-01-19T00:46:35.096Z,-3.44
2023-01-19T00:46:46.834Z,-3.43
2023-01-19T00:46:59.283Z,-3.44
2023-01-19T00:47:10.089Z,-3.47
2023-01-19T00:47:20.815Z,-3.47
2023-01-19T00:47:32.518Z,-3.49
2023-01-19T00:47:44.273Z,-3.49
2023-01-19T00:47:55.025Z,-3.51
2023-01-19T00:48:05.761Z,-3.51
2023-01-19T00:48:17.473Z,-3.51
2023-01-19T00:48:30.699Z,-3.51
2023-01-19T00:48:43.156Z,-3.54
2023-01-19T00:48:54.948Z,-3.54
2023-01-19T00:49:05.712Z,-3.57
2023-01-19T00:49:16.443Z,-3.57
2023-01-19T00:49:28.182Z,-3.60
2023-01-19T00:49:38.983Z,-3.57
2023-01-19T00:49:49.768Z,-3.60
2023-01-19T00:50:00.554Z,-3.60
2023-01-19T00:50:12.382Z,-3.61
2023-01-19T00:50:23.128Z,-3.61
2023-01-19T00:50:36.898Z,-3.62
2023-01-19T00:50:47.675Z,-3.62
2023-01-19T00:50:59.885Z,-3.64
2023-01-19T00:51:10.666Z,-3.64
2023-01-19T00:51:21.457Z,-3.65
2023-01-19T00:51:32.203Z,-3.65
2023-01-19T00:51:42.976Z,-3.67
2023-01-19T00:51:53.718Z,-3.67
2023-01-19T00:52:04.459Z,-3.67
2023-01-19T00:52:17.048Z,-3.67
2023-01-19T00:52:27.811Z,-3.67
2023-01-19T00:52:39.814Z,-3.67
2023-01-19T00:52:50.601Z,-3.70
2023-01-19T00:53:03.096Z,-3.68
2023-01-19T00:53:15.691Z,-3.70
2023-01-19T00:53:27.419Z,-3.70
2023-01-19T00:53:39.265Z,-3.68
2023-01-19T00:53:50.017Z,-3.67
2023-01-19T00:54:02.503Z,-3.67
2023-01-19T00:54:13.264Z,-3.64
2023-01-19T00:54:24.009Z,-3.64
2023-01-19T00:54:35.757Z,-3.62
2023-01-19T00:54:47.528Z,-3.61
2023-01-19T00:54:58.341Z,-3.61
2023-01-19T00:55:11.528Z,-3.60
2023-01-19T00:55:24.783Z,-3.60
2023-01-19T00:55:35.582Z,-3.57
2023-01-19T00:55:48.507Z,-3.56
2023-01-19T00:56:00.259Z,-3.56
2023-01-19T00:56:10.989Z,-3.51
2023-01-19T00:56:21.788Z,-3.50
2023-01-19T00:56:32.546Z,-3.47
2023-01-19T00:56:43.459Z,-3.47
2023-01-19T00:56:56.671Z,-3.44
2023-01-19T00:57:09.108Z,-3.41
2023-01-19T00:57:22.315Z,-3.39
2023-01-19T00:57:34.784Z,-3.38
2023-01-19T00:57:46.990Z,-3.36
2023-01-19T00:57:58.714Z,-3.35
2023-01-19T00:58:10.975Z,-3.36
2023-01-19T00:58:21.728Z,-3.33
2023-01-19T00:58:32.494Z,-3.32
2023-01-19T00:58:43.275Z,-3.32
2023-01-19T00:58:55.805Z,-3.29
2023-01-19T00:59:07.541Z,-3.29
2023-01-19T00:59:18.335Z,-3.28
2023-01-19T00:59:29.124Z,-3.26
2023-01-19T00:59:39.906Z,-3.23
2023-01-19T00:59:51.620Z,-3.22
2023-01-19T01:00:02.411Z,-3.20
2023-01-19T01:00:14.906Z,-3.18
2023-01-19T01:00:27.417Z,-3.18
2023-01-19T01:00:39.926Z,-3.17
2023-01-19T01:00:51.772Z,-3.15
2023-01-19T01:01:02.597Z,-3.14
2023-01-19T01:01:15.246Z,-3.11
2023-01-19T01:01:44.945Z,-3.07
2023-01-19T01:01:45.057Z,-3.08
2023-01-19T01:01:59.029Z,-3.04
2023-01-19T01:02:11.795Z,-3.04
2023-01-19T01:02:23.817Z,-3.00
2023-01-19T01:02:35.998Z,-3.00
2023-01-19T01:02:46.901Z,-3.00
2023-01-19T01:02:59.934Z,-3.00
2023-01-19T01:03:12.003Z,-2.99
2023-01-19T01:03:23.842Z,-2.99
2023-01-19T01:03:36.373Z,-2.97
2023-01-19T01:03:48.137Z,-2.97
2023-01-19T01:04:01.406Z,-2.99
2023-01-19T01:04:13.688Z,-2.97
2023-01-19T01:04:24.457Z,-2.97
2023-01-19T01:04:36.985Z,-2.96
2023-01-19T01:04:48.956Z,-2.96
2023-01-19T01:04:59.747Z,-2.96
2023-01-19T01:05:11.524Z,-2.96
2023-01-19T01:05:22.401Z,-2.94
2023-01-19T01:05:33.156Z,-2.94
2023-01-19T01:05:45.392Z,-2.96
2023-01-19T01:05:56.246Z,-2.96
2023-01-19T01:06:07.083Z,-2.94
2023-01-19T01:06:17.872Z,-2.94
2023-01-19T01:06:29.829Z,-2.94
2023-01-19T01:06:41.616Z,-2.93
2023-01-19T01:06:54.099Z,-2.92
2023-01-19T01:07:05.815Z,-2.94
2023-01-19T01:07:17.636Z,-2.93
2023-01-19T01:07:29.376Z,-2.94
2023-01-19T01:07:41.099Z,-2.93
2023-01-19T01:07:51.838Z,-2.93
2023-01-19T01:08:02.578Z,-2.90
2023-01-19T01:08:14.369Z,-2.90
2023-01-19T01:08:25.127Z,-2.89
2023-01-19T01:08:35.918Z,-2.90
2023-01-19T01:08:46.655Z,-2.90
2023-01-19T01:08:57.417Z,-2.89
2023-01-19T01:09:08.275Z,-2.89
2023-01-19T01:09:19.007Z,-2.89
2023-01-19T01:09:32.132Z,-2.87
2023-01-19T01:09:42.866Z,-2.87
2023-01-19T01:09:53.616Z,-2.87
2023-01-19T01:10:04.378Z,-2.85
2023-01-19T01:10:16.146Z,-2.86
2023-01-19T01:10:26.917Z,-2.85
2023-01-19T01:10:37.695Z,-2.85
2023-01-19T01:10:50.407Z,-2.82
2023-01-19T01:11:02.120Z,-2.85
2023-01-19T01:11:14.857Z,-2.81
2023-01-19T01:11:25.636Z,-2.82
2023-01-19T01:11:36.448Z,-2.81
2023-01-19T01:11:48.980Z,-2.81
2023-01-19T01:11:59.895Z,-2.79
2023-01-19T01:12:10.699Z,-2.76
2023-01-19T01:12:23.236Z,-2.76
2023-01-19T01:12:35.511Z,-2.76
2023-01-19T01:13:19.983Z,-2.76
2023-01-19T01:13:21.023Z,-2.74
2023-01-19T01:13:21.323Z,-2.75
2023-01-19T01:13:34.528Z,-2.71
2023-01-19T01:13:46.288Z,-2.71
2023-01-19T01:13:57.187Z,-2.71
2023-01-19T01:14:09.758Z,-2.68
2023-01-19T01:14:20.508Z,-2.68
2023-01-19T01:14:33.372Z,-2.66
2023-01-19T01:14:45.188Z,-2.64
2023-01-19T01:14:55.926Z,-2.63
2023-01-19T01:15:06.786Z,-2.60
2023-01-19T01:15:18.583Z,-2.60
2023-01-19T01:15:29.396Z,-2.57
2023-01-19T01:15:41.158Z,-2.58
2023-01-19T01:15:51.973Z,-2.56
2023-01-19T01:16:02.709Z,-2.54
2023-01-19T01:16:13.495Z,-2.54
2023-01-19T01:16:24.258Z,-2.53
2023-01-19T01:16:35.070Z,-2.51
2023-01-19T01:16:45.949Z,-2.53
2023-01-19T01:16:56.709Z,-2.50
2023-01-19T01:17:09.204Z,-2.51
2023-01-19T01:17:19.985Z,-2.50
2023-01-19T01:17:31.776Z,-2.48
2023-01-19T01:17:42.563Z,-2.50
2023-01-19T01:17:53.352Z,-2.48
2023-01-19T01:18:04.081Z,-2.48
2023-01-19T01:18:14.829Z,-2.47
2023-01-19T01:18:25.581Z,-2.47
2023-01-19T01:18:37.752Z,-2.47
2023-01-19T01:18:48.550Z,-2.47
2023-01-19T01:19:00.288Z,-2.45
2023-01-19T01:19:12.056Z,-2.45
2023-01-19T01:19:22.889Z,-2.43
2023-01-19T01:19:33.746Z,-2.40
2023-01-19T01:19:44.529Z,-2.39
2023-01-19T01:19:55.276Z,-2.39
2023-01-19T01:20:06.010Z,-2.38
2023-01-19T01:20:16.868Z,-2.38
2023-01-19T01:20:27.627Z,-2.38
2023-01-19T01:20:39.378Z,-2.38
2023-01-19T01:20:50.124Z,-2.36
2023-01-19T01:21:00.907Z,-2.35
2023-01-19T01:21:11.702Z,-2.35
2023-01-19T01:21:22.441Z,-2.33
2023-01-19T01:21:34.296Z,-2.33
2023-01-19T01:21:45.070Z,-2.33
2023-01-19T01:21:55.831Z,-2.33
2023-01-19T01:22:06.636Z,-2.32
2023-01-19T01:22:18.402Z,-2.32
2023-01-19T01:22:31.553Z,-2.29
2023-01-19T01:22:43.831Z,-2.29
2023-01-19T01:22:55.598Z,-2.28
2023-01-19T01:23:06.381Z,-2.26
2023-01-19T01:23:17.132Z,-2.28
2023-01-19T01:23:27.890Z,-2.24
2023-01-19T01:23:40.441Z,-2.23
2023-01-19T01:23:51.207Z,-2.23
2023-01-19T01:24:01.952Z,-2.21
2023-01-19T01:24:12.751Z,-2.23
2023-01-19T01:24:24.468Z,-2.21
2023-01-19T01:24:36.921Z,-2.21
2023-01-19T01:24:49.371Z,-2.20
2023-01-19T01:25:00.211Z,-2.18
2023-01-19T01:25:12.032Z,-2.17
2023-01-19T01:25:24.470Z,-2.18
2023-01-19T01:25:38.198Z,-2.17
2023-01-19T01:25:49.045Z,-2.16
2023-01-19T01:25:59.800Z,-2.16
2023-01-19T01:26:13.546Z,-2.16
2023-01-19T01:26:27.059Z,-2.16
2023-01-19T01:26:38.456Z,-2.13
2023-01-19T01:26:49.218Z,-2.14
2023-01-19T01:26:59.960Z,-2.13
2023-01-19T01:27:11.618Z,-2.16
2023-01-19T01:27:22.360Z,-2.13
2023-01-19T01:27:34.841Z,-2.13
2023-01-19T01:27:47.290Z,-2.13
2023-01-19T01:27:58.020Z,-2.10
2023-01-19T01:28:09.749Z,-2.11
2023-01-19T01:28:22.711Z,-2.10
2023-01-19T01:28:34.470Z,-2.10
2023-01-19T01:28:47.692Z,-2.08
2023-01-19T01:29:00.929Z,-2.08
2023-01-19T01:29:11.662Z,-2.05
2023-01-19T01:29:23.370Z,-2.05
2023-01-19T01:29:34.368Z,-2.05
2023-01-19T01:29:45.140Z,-2.05
2023-01-19T01:29:56.890Z,-2.03
2023-01-19T01:30:09.360Z,-2.03
2023-01-19T01:30:20.180Z,-2.03
2023-01-19T01:30:32.493Z,-2.00
2023-01-19T01:30:43.253Z,-2.02
2023-01-19T01:30:55.039Z,-2.00
2023-01-19T01:31:05.802Z,-1.99
2023-01-19T01:31:16.601Z,-2.00
2023-01-19T01:31:29.585Z,-1.99
2023-01-19T01:31:40.429Z,-1.98
2023-01-19T01:31:51.260Z,-1.98
2023-01-19T01:32:02.002Z,-1.96
2023-01-19T01:32:13.754Z,-1.95
2023-01-19T01:32:24.536Z,-1.93
2023-01-19T01:32:35.320Z,-1.93
2023-01-19T01:32:46.109Z,-1.90
2023-01-19T01:32:58.657Z,-1.90
2023-01-19T01:33:10.590Z,-1.88
2023-01-19T01:33:41.113Z,-1.88
2023-01-19T01:33:41.269Z,-1.88
2023-01-19T01:33:53.511Z,-1.84
2023-01-19T01:34:04.296Z,-1.85
2023-01-19T01:34:15.115Z,-1.84
2023-01-19T01:34:25.893Z,-1.84
2023-01-19T01:34:36.663Z,-1.82
2023-01-19T01:34:47.411Z,-1.82
2023-01-19T01:34:58.221Z,-1.82
2023-01-19T01:35:09.984Z,-1.82
2023-01-19T01:35:20.711Z,-1.82
2023-01-19T01:35:31.501Z,-1.81
2023-01-19T01:35:44.023Z,-1.81
2023-01-19T01:35:56.501Z,-1.82
2023-01-19T01:36:07.267Z,-1.81
2023-01-19T01:36:19.035Z,-1.82
2023-01-19T01:36:29.800Z,-1.81
2023-01-19T01:36:41.562Z,-1.82
2023-01-19T01:36:53.294Z,-1.82
2023-01-19T01:37:04.022Z,-1.82
2023-01-19T01:37:14.789Z,-1.82
2023-01-19T01:37:25.567Z,-1.81
2023-01-19T01:37:36.324Z,-1.82
2023-01-19T01:37:48.822Z,-1.82
2023-01-19T01:37:59.624Z,-1.82
2023-01-19T01:38:11.838Z,-1.84
2023-01-19T01:38:22.642Z,-1.84
2023-01-19T01:38:34.656Z,-1.82
2023-01-19T01:38:45.517Z,-1.82
2023-01-19T01:38:57.299Z,-1.84
2023-01-19T01:39:09.033Z,-1.84
2023-01-19T01:39:19.794Z,-1.85
2023-01-19T01:39:31.571Z,-1.85
2023-01-19T01:39:42.405Z,-1.85
2023-01-19T01:39:53.221Z,-1.87
2023-01-19T01:40:04.004Z,-1.88
2023-01-19T01:40:14.763Z,-1.88
2023-01-19T01:40:26.506Z,-1.88
2023-01-19T01:40:38.283Z,-1.90
2023-01-19T01:40:49.061Z,-1.92
2023-01-19T01:40:59.852Z,-1.93
2023-01-19T01:41:10.626Z,-1.93
2023-01-19T01:41:22.038Z,-1.93
2023-01-19T01:41:37.235Z,-1.95
2023-01-19T01:41:49.690Z,-1.96
2023-01-19T01:42:01.411Z,-1.95
2023-01-19T01:42:12.142Z,-1.96
2023-01-19T01:42:22.933Z,-1.96
2023-01-19T01:42:35.194Z,-1.96
2023-01-19T01:42:48.017Z,-1.96
2023-01-19T01:43:00.788Z,-1.98
2023-01-19T01:43:12.704Z,-1.98
2023-01-19T01:43:25.747Z,-1.98
2023-01-19T01:43:37.522Z,-1.99
2023-01-19T01:43:49.331Z,-1.99
2023-01-19T01:44:00.132Z,-2.00
2023-01-19T01:44:13.758Z,-2.00
2023-01-19T01:44:24.492Z,-2.00
2023-01-19T01:44:36.999Z,-2.02
2023-01-19T01:44:49.911Z,-2.02
2023-01-19T01:45:02.312Z,-2.02
2023-01-19T01:45:14.010Z,-2.03
2023-01-19T01:45:24.755Z,-2.05
2023-01-19T01:45:37.299Z,-2.06
2023-01-19T01:45:48.120Z,-2.06
2023-01-19T01:46:00.423Z,-2.06
2023-01-19T01:46:12.753Z,-2.08
2023-01-19T01:46:24.543Z,-2.08
2023-01-19T01:46:36.835Z,-2.10
2023-01-19T01:46:49.073Z,-2.11
2023-01-19T01:46:59.834Z,-2.11
2023-01-19T01:47:13.061Z,-2.14
2023-01-19T01:47:25.523Z,-2.16
2023-01-19T01:47:36.315Z,-2.14
2023-01-19T01:47:50.057Z,-2.17
2023-01-19T01:48:00.812Z,-2.17
2023-01-19T01:48:11.583Z,-2.18
2023-01-19T01:48:22.361Z,-2.20
2023-01-19T01:48:33.112Z,-2.21
2023-01-19T01:48:43.892Z,-2.23
2023-01-19T01:48:55.714Z,-2.23
2023-01-19T01:49:06.477Z,-2.24
2023-01-19T01:49:17.232Z,-2.26
2023-01-19T01:49:29.187Z,-2.24
2023-01-19T01:49:41.383Z,-2.24
2023-01-19T01:49:53.616Z,-2.24
2023-01-19T01:50:05.326Z,-2.24
2023-01-19T01:50:17.076Z,-2.26
2023-01-19T01:50:28.854Z,-2.28
2023-01-19T01:50:41.126Z,-2.28
2023-01-19T01:50:53.856Z,-2.29
2023-01-19T01:51:04.577Z,-2.29
2023-01-19T01:51:17.042Z,-2.29
2023-01-19T01:51:29.556Z,-2.33
2023-01-19T01:51:40.334Z,-2.33
2023-01-19T01:51:51.084Z,-2.33
2023-01-19T01:52:02.775Z,-2.36
2023-01-19T01:52:15.257Z,-2.36
2023-01-19T01:52:26.055Z,-2.38
2023-01-19T01:52:36.797Z,-2.39
2023-01-19T01:53:07.433Z,-2.42
2023-01-19T01:53:07.683Z,-2.43
2023-01-19T01:53:19.857Z,-2.43
2023-01-19T01:53:30.652Z,-2.45
2023-01-19T01:53:43.447Z,-2.48
2023-01-19T01:53:54.206Z,-2.48
2023-01-19T01:54:04.985Z,-2.50
2023-01-19T01:54:17.033Z,-2.53
2023-01-19T01:54:27.878Z,-2.54
2023-01-19T01:54:40.335Z,-2.54
2023-01-19T01:54:51.102Z,-2.56
2023-01-19T01:55:03.536Z,-2.58
2023-01-19T01:55:14.316Z,-2.58
2023-01-19T01:55:26.807Z,-2.60
2023-01-19T01:55:37.584Z,-2.64
2023-01-19T01:55:49.854Z,-2.63
2023-01-19T01:56:00.645Z,-2.66
2023-01-19T01:56:11.425Z,-2.68
2023-01-19T01:56:23.700Z,-2.69
2023-01-19T01:56:36.136Z,-2.71
2023-01-19T01:56:48.863Z,-2.71
2023-01-19T01:57:01.129Z,-2.74
2023-01-19T01:57:12.904Z,-2.75
2023-01-19T01:57:23.687Z,-2.76
2023-01-19T01:57:34.525Z,-2.78
2023-01-19T01:57:45.317Z,-2.76
2023-01-19T01:57:56.097Z,-2.79
2023-01-19T01:58:06.926Z,-2.78
2023-01-19T01:58:17.679Z,-2.79
2023-01-19T01:58:29.403Z,-2.81
2023-01-19T01:58:40.217Z,-2.82
2023-01-19T01:58:50.967Z,-2.81
2023-01-19T01:59:01.720Z,-2.82
2023-01-19T01:59:12.461Z,-2.85
2023-01-19T01:59:24.165Z,-2.86
2023-01-19T01:59:35.895Z,-2.86
2023-01-19T01:59:48.391Z,-2.86
2023-01-19T02:00:00.659Z,-2.87
2023-01-19T02:00:11.483Z,-2.87
2023-01-19T02:00:22.323Z,-2.87
2023-01-19T02:00:33.126Z,-2.89
2023-01-19T02:00:44.010Z,-2.90
2023-01-19T02:00:58.374Z,-2.90
2023-01-19T02:01:10.675Z,-2.89
2023-01-19T02:01:21.602Z,-2.92
2023-01-19T02:01:33.717Z,-2.92
2023-01-19T02:01:44.695Z,-2.93
2023-01-19T02:01:55.756Z,-2.93
2023-01-19T02:02:07.794Z,-2.94
2023-01-19T02:02:20.201Z,-2.94
2023-01-19T02:02:30.988Z,-2.96
2023-01-19T02:02:42.732Z,-2.96
2023-01-19T02:02:53.508Z,-2.99
2023-01-19T02:03:04.598Z,-2.99
2023-01-19T02:03:15.537Z,-2.99
2023-01-19T02:03:27.293Z,-2.99
2023-01-19T02:03:39.069Z,-3.02
2023-01-19T02:03:51.034Z,-3.02
2023-01-19T02:04:04.277Z,-3.04
2023-01-19T02:04:16.840Z,-3.04
2023-01-19T02:04:27.607Z,-3.04
2023-01-19T02:04:39.361Z,-3.04
2023-01-19T02:04:50.158Z,-3.04
2023-01-19T02:05:00.995Z,-3.04
2023-01-19T02:05:11.767Z,-3.05
2023-01-19T02:05:22.503Z,-3.05
2023-01-19T02:05:34.255Z,-3.07
2023-01-19T02:05:46.677Z,-3.08
2023-01-19T02:05:58.906Z,-3.08
2023-01-19T02:06:10.711Z,-3.08
2023-01-19T02:06:21.457Z,-3.10
2023-01-19T02:06:32.248Z,-3.10
2023-01-19T02:06:44.487Z,-3.11
2023-01-19T02:06:57.023Z,-3.11
2023-01-19T02:07:10.783Z,-3.13
2023-01-19T02:07:21.534Z,-3.14
2023-01-19T02:07:32.398Z,-3.17
2023-01-19T02:07:44.649Z,-3.15
2023-01-19T02:07:55.407Z,-3.17
2023-01-19T02:08:06.182Z,-3.18
2023-01-19T02:08:16.992Z,-3.18
2023-01-19T02:08:30.218Z,-3.22
2023-01-19T02:08:41.038Z,-3.22
2023-01-19T02:08:51.822Z,-3.22
2023-01-19T02:09:04.045Z,-3.23
2023-01-19T02:09:16.545Z,-3.25
2023-01-19T02:09:27.298Z,-3.25
2023-01-19T02:09:38.088Z,-3.26
2023-01-19T02:09:50.588Z,-3.26
2023-01-19T02:10:03.575Z,-3.28
2023-01-19T02:10:14.347Z,-3.31
2023-01-19T02:10:25.107Z,-3.32
2023-01-19T02:10:37.589Z,-3.32
2023-01-19T02:10:50.019Z,-3.32
2023-01-19T02:11:01.735Z,-3.35
2023-01-19T02:11:13.982Z,-3.33
2023-01-19T02:11:25.704Z,-3.35
2023-01-19T02:11:37.455Z,-3.36
2023-01-19T02:11:48.189Z,-3.38
2023-01-19T02:11:58.978Z,-3.38
2023-01-19T02:12:09.719Z,-3.39
2023-01-19T02:12:20.528Z,-3.39
2023-01-19T02:12:31.259Z,-3.41
2023-01-19T02:12:42.023Z,-3.43
2023-01-19T02:12:52.807Z,-3.43
2023-01-19T02:13:05.045Z,-3.43
2023-01-19T02:13:17.404Z,-3.43
2023-01-19T02:13:28.138Z,-3.46
2023-01-19T02:13:39.042Z,-3.44
2023-01-19T02:13:49.838Z,-3.46
2023-01-19T02:14:00.625Z,-3.47
2023-01-19T02:14:11.416Z,-3.47
2023-01-19T02:14:23.891Z,-3.49
2023-01-19T02:14:34.671Z,-3.50
2023-01-19T02:14:46.426Z,-3.51
2023-01-19T02:14:57.248Z,-3.51
2023-01-19T02:15:08.995Z,-3.51
2023-01-19T02:15:20.784Z,-3.53
2023-01-19T02:15:31.578Z,-3.51
2023-01-19T02:15:43.317Z,-3.51
2023-01-19T02:15:54.083Z,-3.51
2023-01-19T02:16:06.553Z,-3.53
2023-01-19T02:16:17.393Z,-3.54
2023-01-19T02:16:30.687Z,-3.53
2023-01-19T02:16:41.502Z,-3.54
2023-01-19T02:16:53.332Z,-3.56
2023-01-19T02:17:05.816Z,-3.56
2023-01-19T02:17:18.071Z,-3.54
2023-01-19T02:17:28.844Z,-3.56
2023-01-19T02:17:39.661Z,-3.56
2023-01-19T02:17:50.417Z,-3.57
2023-01-19T02:18:02.161Z,-3.57
2023-01-19T02:18:12.937Z,-3.60
2023-01-19T02:18:23.749Z,-3.60
2023-01-19T02:18:34.590Z,-3.60
2023-01-19T02:18:45.340Z,-3.61
2023-01-19T02:18:57.061Z,-3.61
2023-01-19T02:19:07.877Z,-3.60
2023-01-19T02:19:19.672Z,-3.61
2023-01-19T02:19:30.440Z,-3.61
2023-01-19T02:19:42.187Z,-3.61
2023-01-19T02:19:52.919Z,-3.60
2023-01-19T02:20:03.706Z,-3.61
2023-01-19T02:20:14.455Z,-3.60
2023-01-19T02:20:25.199Z,-3.61
2023-01-19T02:20:35.969Z,-3.62
2023-01-19T02:20:46.819Z,-3.60
2023-01-19T02:20:59.248Z,-3.61
2023-01-19T02:21:11.016Z,-3.61
2023-01-19T02:21:21.738Z,-3.62
2023-01-19T02:21:32.513Z,-3.61
2023-01-19T02:21:44.824Z,-3.62
2023-01-19T02:21:57.028Z,-3.62
2023-01-19T02:22:08.771Z,-3.62
2023-01-19T02:22:21.264Z,-3.60
2023-01-19T02:22:32.004Z,-3.61
2023-01-19T02:22:42.788Z,-3.60
2023-01-19T02:22:53.522Z,-3.60
2023-01-19T02:23:04.259Z,-3.61
2023-01-19T02:23:15.979Z,-3.57
2023-01-19T02:23:29.208Z,-3.60
2023-01-19T02:23:40.050Z,-3.61
2023-01-19T02:23:50.823Z,-3.60
2023-01-19T02:24:01.584Z,-3.62
2023-01-19T02:24:12.324Z,-3.62
2023-01-19T02:24:23.074Z,-3.61
2023-01-19T02:24:34.768Z,-3.64
2023-01-19T02:24:47.257Z,-3.62
2023-01-19T02:24:59.700Z,-3.62
2023-01-19T02:25:10.440Z,-3.62
2023-01-19T02:25:22.953Z,-3.62
2023-01-19T02:25:36.380Z,-3.62
2023-01-19T02:25:47.168Z,-3.64
2023-01-19T02:25:59.639Z,-3.64
2023-01-19T02:26:12.112Z,-3.64
2023-01-19T02:26:23.868Z,-3.65
2023-01-19T02:26:34.655Z,-3.65
2023-01-19T02:26:47.119Z,-3.65
2023-01-19T02:26:57.868Z,-3.67
2023-01-19T02:27:09.642Z,-3.67
2023-01-19T02:27:20.389Z,-3.68
2023-01-19T02:27:33.520Z,-3.68
2023-01-19T02:27:45.226Z,-3.67
2023-01-19T02:27:56.932Z,-3.67
2023-01-19T02:28:07.707Z,-3.67
2023-01-19T02:28:19.252Z,-3.70
2023-01-19T02:28:30.024Z,-3.68
2023-01-19T02:28:40.783Z,-3.70